sensor_id;sensor_type;location;lat;lon;timestamp;P1;durP1;ratioP1;P2;durP2;ratioP2
80381;SDS011;69692;55.820;37.490;2023-08-20T00:01:43;16.67;;;11.00;;
80381;SDS011;69692;55.820;37.490;2023-08-20T00:04:09;12.88;;;10.50;;
80381;SDS011;69692;55.820;37.490;2023-08-20T00:06:36;17.00;;;10.50;;
80381;SDS011;69692;55.820;37.490;2023-08-20T00:09:02;14.63;;;11.60;;
80381;SDS011;69692;55.820;37.490;2023-08-20T00:11:29;15.55;;;11.77;;
80381;SDS011;69692;55.820;37.490;2023-08-20T00:13:55;16.23;;;10.95;;
80381;SDS011;69692;55.820;37.490;2023-08-20T00:16:20;13.95;;;10.98;;
80381;SDS011;69692;55.820;37.490;2023-08-20T00:18:46;14.63;;;10.90;;
80381;SDS011;69692;55.820;37.490;2023-08-20T00:21:13;11.77;;;10.23;;
80381;SDS011;69692;55.820;37.490;2023-08-20T00:23:39;13.98;;;10.45;;
80381;SDS011;69692;55.820;37.490;2023-08-20T00:26:05;19.83;;;11.63;;
80381;SDS011;69692;55.820;37.490;2023-08-20T00:28:32;14.75;;;11.30;;
80381;SDS011;69692;55.820;37.490;2023-08-20T00:31:02;12.52;;;11.07;;
80381;SDS011;69692;55.820;37.490;2023-08-20T00:33:28;15.15;;;11.07;;
80381;SDS011;69692;55.820;37.490;2023-08-20T00:35:54;15.52;;;11.48;;
80381;SDS011;69692;55.820;37.490;2023-08-20T00:38:20;16.27;;;11.20;;
80381;SDS011;69692;55.820;37.490;2023-08-20T00:40:46;15.52;;;11.13;;
80381;SDS011;69692;55.820;37.490;2023-08-20T00:43:12;15.02;;;10.40;;
80381;SDS011;69692;55.820;37.490;2023-08-20T00:45:40;15.80;;;10.93;;
80381;SDS011;69692;55.820;37.490;2023-08-20T00:48:06;16.83;;;11.18;;
80381;SDS011;69692;55.820;37.490;2023-08-20T00:50:33;14.25;;;11.43;;
80381;SDS011;69692;55.820;37.490;2023-08-20T00:53:01;15.30;;;11.15;;
80381;SDS011;69692;55.820;37.490;2023-08-20T00:55:27;14.40;;;11.57;;
80381;SDS011;69692;55.820;37.490;2023-08-20T00:57:54;13.02;;;10.73;;
80381;SDS011;69692;55.820;37.490;2023-08-20T01:00:19;12.70;;;10.85;;
80381;SDS011;69692;55.820;37.490;2023-08-20T01:02:48;17.00;;;11.63;;
80381;SDS011;69692;55.820;37.490;2023-08-20T01:05:14;14.27;;;10.77;;
80381;SDS011;69692;55.820;37.490;2023-08-20T01:13:02;15.02;;;11.93;;
80381;SDS011;69692;55.820;37.490;2023-08-20T01:15:29;18.05;;;12.27;;
80381;SDS011;69692;55.820;37.490;2023-08-20T01:17:55;14.23;;;11.70;;
80381;SDS011;69692;55.820;37.490;2023-08-20T01:20:21;17.48;;;10.93;;
80381;SDS011;69692;55.820;37.490;2023-08-20T01:22:58;15.32;;;11.65;;
80381;SDS011;69692;55.820;37.490;2023-08-20T01:26:48;14.70;;;11.90;;
80381;SDS011;69692;55.820;37.490;2023-08-20T01:29:09;16.95;;;11.40;;
80381;SDS011;69692;55.820;37.490;2023-08-20T01:31:37;18.08;;;12.30;;
80381;SDS011;69692;55.820;37.490;2023-08-20T01:34:03;17.08;;;12.20;;
80381;SDS011;69692;55.820;37.490;2023-08-20T01:36:30;16.70;;;12.88;;
80381;SDS011;69692;55.820;37.490;2023-08-20T01:38:56;19.08;;;12.18;;
80381;SDS011;69692;55.820;37.490;2023-08-20T01:41:22;19.80;;;13.13;;
80381;SDS011;69692;55.820;37.490;2023-08-20T01:43:48;16.35;;;11.82;;
80381;SDS011;69692;55.820;37.490;2023-08-20T01:46:14;18.77;;;12.55;;
80381;SDS011;69692;55.820;37.490;2023-08-20T01:48:40;18.63;;;12.68;;
80381;SDS011;69692;55.820;37.490;2023-08-20T01:51:05;15.13;;;12.85;;
80381;SDS011;69692;55.820;37.490;2023-08-20T01:53:31;20.80;;;13.70;;
80381;SDS011;69692;55.820;37.490;2023-08-20T01:56:00;20.60;;;13.68;;
80381;SDS011;69692;55.820;37.490;2023-08-20T01:58:26;18.15;;;12.55;;
80381;SDS011;69692;55.820;37.490;2023-08-20T02:00:52;17.02;;;12.25;;
80381;SDS011;69692;55.820;37.490;2023-08-20T02:03:18;15.05;;;11.65;;
80381;SDS011;69692;55.820;37.490;2023-08-20T02:05:44;17.85;;;12.45;;
80381;SDS011;69692;55.820;37.490;2023-08-20T02:08:09;17.02;;;12.40;;
80381;SDS011;69692;55.820;37.490;2023-08-20T02:10:36;16.83;;;12.55;;
80381;SDS011;69692;55.820;37.490;2023-08-20T02:13:04;20.75;;;12.15;;
80381;SDS011;69692;55.820;37.490;2023-08-20T02:15:32;20.50;;;12.68;;
80381;SDS011;69692;55.820;37.490;2023-08-20T02:17:58;18.17;;;13.13;;
80381;SDS011;69692;55.820;37.490;2023-08-20T02:20:26;17.48;;;14.40;;
80381;SDS011;69692;55.820;37.490;2023-08-20T02:22:53;14.73;;;12.55;;
80381;SDS011;69692;55.820;37.490;2023-08-20T02:25:19;17.58;;;13.45;;
80381;SDS011;69692;55.820;37.490;2023-08-20T02:27:45;20.17;;;13.07;;
80381;SDS011;69692;55.820;37.490;2023-08-20T02:30:11;17.40;;;12.48;;
80381;SDS011;69692;55.820;37.490;2023-08-20T02:32:39;19.23;;;12.20;;
80381;SDS011;69692;55.820;37.490;2023-08-20T02:35:05;19.48;;;12.50;;
80381;SDS011;69692;55.820;37.490;2023-08-20T02:37:31;15.90;;;12.07;;
80381;SDS011;69692;55.820;37.490;2023-08-20T02:39:57;19.15;;;12.95;;
80381;SDS011;69692;55.820;37.490;2023-08-20T02:42:23;16.58;;;13.50;;
80381;SDS011;69692;55.820;37.490;2023-08-20T02:44:49;18.00;;;13.15;;
80381;SDS011;69692;55.820;37.490;2023-08-20T02:47:15;17.80;;;13.45;;
80381;SDS011;69692;55.820;37.490;2023-08-20T02:49:40;20.75;;;13.25;;
80381;SDS011;69692;55.820;37.490;2023-08-20T02:52:06;16.50;;;12.65;;
80381;SDS011;69692;55.820;37.490;2023-08-20T02:54:32;19.10;;;13.80;;
80381;SDS011;69692;55.820;37.490;2023-08-20T02:56:59;18.38;;;13.85;;
80381;SDS011;69692;55.820;37.490;2023-08-20T02:59:25;15.35;;;13.35;;
80381;SDS011;69692;55.820;37.490;2023-08-20T03:01:51;18.63;;;13.57;;
80381;SDS011;69692;55.820;37.490;2023-08-20T03:04:17;21.60;;;14.82;;
80381;SDS011;69692;55.820;37.490;2023-08-20T03:06:43;17.95;;;14.15;;
80381;SDS011;69692;55.820;37.490;2023-08-20T03:09:09;17.92;;;14.65;;
80381;SDS011;69692;55.820;37.490;2023-08-20T03:11:35;19.95;;;14.13;;
80381;SDS011;69692;55.820;37.490;2023-08-20T03:14:00;20.85;;;15.40;;
80381;SDS011;69692;55.820;37.490;2023-08-20T03:16:26;18.40;;;14.57;;
80381;SDS011;69692;55.820;37.490;2023-08-20T03:18:52;19.60;;;14.20;;
80381;SDS011;69692;55.820;37.490;2023-08-20T03:21:18;19.92;;;15.00;;
80381;SDS011;69692;55.820;37.490;2023-08-20T03:23:43;19.92;;;15.05;;
80381;SDS011;69692;55.820;37.490;2023-08-20T03:26:09;17.90;;;15.63;;
80381;SDS011;69692;55.820;37.490;2023-08-20T03:28:35;19.33;;;15.00;;
80381;SDS011;69692;55.820;37.490;2023-08-20T03:31:01;20.52;;;15.52;;
80381;SDS011;69692;55.820;37.490;2023-08-20T03:33:30;21.00;;;16.20;;
80381;SDS011;69692;55.820;37.490;2023-08-20T03:35:56;19.42;;;15.98;;
80381;SDS011;69692;55.820;37.490;2023-08-20T03:38:22;22.58;;;16.73;;
80381;SDS011;69692;55.820;37.490;2023-08-20T03:40:48;22.95;;;16.50;;
80381;SDS011;69692;55.820;37.490;2023-08-20T03:43:15;21.90;;;16.35;;
80381;SDS011;69692;55.820;37.490;2023-08-20T03:45:41;22.42;;;16.80;;
80381;SDS011;69692;55.820;37.490;2023-08-20T03:48:07;22.08;;;18.08;;
80381;SDS011;69692;55.820;37.490;2023-08-20T03:50:33;22.75;;;17.00;;
80381;SDS011;69692;55.820;37.490;2023-08-20T03:53:00;23.45;;;17.15;;
80381;SDS011;69692;55.820;37.490;2023-08-20T03:55:26;19.48;;;15.82;;
80381;SDS011;69692;55.820;37.490;2023-08-20T03:57:52;20.15;;;16.45;;
80381;SDS011;69692;55.820;37.490;2023-08-20T04:00:18;24.52;;;17.30;;
80381;SDS011;69692;55.820;37.490;2023-08-20T04:02:45;23.35;;;16.60;;
80381;SDS011;69692;55.820;37.490;2023-08-20T04:05:11;24.33;;;16.98;;
80381;SDS011;69692;55.820;37.490;2023-08-20T04:07:37;20.58;;;15.35;;
80381;SDS011;69692;55.820;37.490;2023-08-20T04:10:03;18.17;;;16.25;;
80381;SDS011;69692;55.820;37.490;2023-08-20T04:12:31;20.38;;;16.15;;
80381;SDS011;69692;55.820;37.490;2023-08-20T04:14:58;21.73;;;16.90;;
80381;SDS011;69692;55.820;37.490;2023-08-20T04:17:24;23.08;;;16.60;;
80381;SDS011;69692;55.820;37.490;2023-08-20T04:19:51;22.52;;;17.75;;
80381;SDS011;69692;55.820;37.490;2023-08-20T04:22:17;24.40;;;17.98;;
80381;SDS011;69692;55.820;37.490;2023-08-20T04:24:43;23.98;;;17.38;;
80381;SDS011;69692;55.820;37.490;2023-08-20T04:27:09;22.80;;;17.20;;
80381;SDS011;69692;55.820;37.490;2023-08-20T04:29:37;23.17;;;18.67;;
80381;SDS011;69692;55.820;37.490;2023-08-20T04:32:04;26.27;;;19.20;;
80381;SDS011;69692;55.820;37.490;2023-08-20T04:34:30;22.38;;;16.23;;
80381;SDS011;69692;55.820;37.490;2023-08-20T04:36:57;24.00;;;18.08;;
80381;SDS011;69692;55.820;37.490;2023-08-20T04:39:24;23.65;;;20.00;;
80381;SDS011;69692;55.820;37.490;2023-08-20T04:41:52;27.08;;;18.58;;
80381;SDS011;69692;55.820;37.490;2023-08-20T04:44:19;24.17;;;18.98;;
80381;SDS011;69692;55.820;37.490;2023-08-20T04:46:46;23.52;;;19.35;;
80381;SDS011;69692;55.820;37.490;2023-08-20T04:49:12;22.88;;;18.38;;
80381;SDS011;69692;55.820;37.490;2023-08-20T04:51:38;23.17;;;18.17;;
80381;SDS011;69692;55.820;37.490;2023-08-20T04:54:04;22.52;;;18.13;;
80381;SDS011;69692;55.820;37.490;2023-08-20T04:56:30;25.00;;;18.75;;
80381;SDS011;69692;55.820;37.490;2023-08-20T04:58:56;24.55;;;19.23;;
80381;SDS011;69692;55.820;37.490;2023-08-20T05:01:48;20.90;;;17.80;;
80381;SDS011;69692;55.820;37.490;2023-08-20T05:04:15;20.60;;;18.45;;
80381;SDS011;69692;55.820;37.490;2023-08-20T05:06:41;24.15;;;18.77;;
80381;SDS011;69692;55.820;37.490;2023-08-20T05:09:07;19.60;;;16.80;;
80381;SDS011;69692;55.820;37.490;2023-08-20T05:11:33;26.15;;;18.85;;
80381;SDS011;69692;55.820;37.490;2023-08-20T05:13:59;21.95;;;18.67;;
80381;SDS011;69692;55.820;37.490;2023-08-20T05:16:25;19.88;;;16.00;;
80381;SDS011;69692;55.820;37.490;2023-08-20T05:18:52;20.45;;;15.30;;
80381;SDS011;69692;55.820;37.490;2023-08-20T05:21:18;20.23;;;16.10;;
80381;SDS011;69692;55.820;37.490;2023-08-20T05:23:44;22.77;;;15.00;;
80381;SDS011;69692;55.820;37.490;2023-08-20T05:26:11;16.95;;;12.98;;
80381;SDS011;69692;55.820;37.490;2023-08-20T05:28:37;19.38;;;14.63;;
80381;SDS011;69692;55.820;37.490;2023-08-20T05:31:04;17.00;;;14.30;;
80381;SDS011;69692;55.820;37.490;2023-08-20T05:33:31;15.13;;;12.43;;
80381;SDS011;69692;55.820;37.490;2023-08-20T05:35:58;16.05;;;11.65;;
80381;SDS011;69692;55.820;37.490;2023-08-20T05:38:25;17.67;;;12.25;;
80381;SDS011;69692;55.820;37.490;2023-08-20T05:40:51;14.20;;;11.50;;
80381;SDS011;69692;55.820;37.490;2023-08-20T05:43:18;13.10;;;11.13;;
80381;SDS011;69692;55.820;37.490;2023-08-20T05:45:45;17.10;;;11.68;;
80381;SDS011;69692;55.820;37.490;2023-08-20T05:48:16;13.25;;;11.52;;
80381;SDS011;69692;55.820;37.490;2023-08-20T05:50:42;12.10;;;10.27;;
80381;SDS011;69692;55.820;37.490;2023-08-20T05:53:08;13.02;;;10.10;;
80381;SDS011;69692;55.820;37.490;2023-08-20T05:55:33;12.23;;;10.77;;
80381;SDS011;69692;55.820;37.490;2023-08-20T05:57:59;16.50;;;10.90;;
80381;SDS011;69692;55.820;37.490;2023-08-20T06:00:26;12.13;;;10.82;;
80381;SDS011;69692;55.820;37.490;2023-08-20T06:02:53;12.98;;;9.48;;
80381;SDS011;69692;55.820;37.490;2023-08-20T06:05:19;11.98;;;10.38;;
80381;SDS011;69692;55.820;37.490;2023-08-20T06:07:45;11.32;;;9.02;;
80381;SDS011;69692;55.820;37.490;2023-08-20T06:10:11;12.10;;;10.40;;
80381;SDS011;69692;55.820;37.490;2023-08-20T06:12:37;16.17;;;10.55;;
80381;SDS011;69692;55.820;37.490;2023-08-20T06:15:04;15.82;;;10.13;;
80381;SDS011;69692;55.820;37.490;2023-08-20T06:17:32;15.63;;;10.93;;
80381;SDS011;69692;55.820;37.490;2023-08-20T06:19:58;12.30;;;10.32;;
80381;SDS011;69692;55.820;37.490;2023-08-20T06:22:25;13.75;;;9.70;;
80381;SDS011;69692;55.820;37.490;2023-08-20T06:24:51;14.02;;;10.95;;
80381;SDS011;69692;55.820;37.490;2023-08-20T06:27:17;13.70;;;9.90;;
80381;SDS011;69692;55.820;37.490;2023-08-20T06:29:44;13.73;;;9.48;;
80381;SDS011;69692;55.820;37.490;2023-08-20T06:32:10;11.10;;;8.63;;
80381;SDS011;69692;55.820;37.490;2023-08-20T06:34:36;10.93;;;8.90;;
80381;SDS011;69692;55.820;37.490;2023-08-20T06:37:02;10.68;;;8.43;;
80381;SDS011;69692;55.820;37.490;2023-08-20T06:39:28;11.60;;;9.00;;
80381;SDS011;69692;55.820;37.490;2023-08-20T06:41:55;15.95;;;8.57;;
80381;SDS011;69692;55.820;37.490;2023-08-20T06:44:21;11.70;;;8.98;;
80381;SDS011;69692;55.820;37.490;2023-08-20T06:46:47;15.05;;;8.52;;
80381;SDS011;69692;55.820;37.490;2023-08-20T06:49:13;9.60;;;8.55;;
80381;SDS011;69692;55.820;37.490;2023-08-20T06:51:41;12.00;;;8.43;;
80381;SDS011;69692;55.820;37.490;2023-08-20T06:54:06;13.20;;;9.82;;
80381;SDS011;69692;55.820;37.490;2023-08-20T06:56:33;11.35;;;8.82;;
80381;SDS011;69692;55.820;37.490;2023-08-20T06:59:00;10.98;;;8.60;;
80381;SDS011;69692;55.820;37.490;2023-08-20T07:01:28;11.73;;;8.63;;
80381;SDS011;69692;55.820;37.490;2023-08-20T07:03:55;11.02;;;9.18;;
80381;SDS011;69692;55.820;37.490;2023-08-20T07:06:21;10.45;;;8.75;;
80381;SDS011;69692;55.820;37.490;2023-08-20T07:08:47;8.65;;;6.13;;
80381;SDS011;69692;55.820;37.490;2023-08-20T07:11:13;7.43;;;5.90;;
80381;SDS011;69692;55.820;37.490;2023-08-20T07:13:40;8.13;;;5.75;;
80381;SDS011;69692;55.820;37.490;2023-08-20T07:16:08;11.40;;;7.25;;
80381;SDS011;69692;55.820;37.490;2023-08-20T07:18:34;11.60;;;9.02;;
80381;SDS011;69692;55.820;37.490;2023-08-20T07:21:00;8.27;;;6.45;;
80381;SDS011;69692;55.820;37.490;2023-08-20T07:23:26;9.43;;;7.20;;
80381;SDS011;69692;55.820;37.490;2023-08-20T07:25:52;7.60;;;6.13;;
80381;SDS011;69692;55.820;37.490;2023-08-20T07:28:30;8.55;;;6.68;;
80381;SDS011;69692;55.820;37.490;2023-08-20T07:31:14;10.35;;;6.65;;
80381;SDS011;69692;55.820;37.490;2023-08-20T07:33:40;9.88;;;6.88;;
80381;SDS011;69692;55.820;37.490;2023-08-20T07:36:06;9.75;;;7.38;;
80381;SDS011;69692;55.820;37.490;2023-08-20T07:38:32;15.10;;;8.52;;
80381;SDS011;69692;55.820;37.490;2023-08-20T07:40:57;7.78;;;6.65;;
80381;SDS011;69692;55.820;37.490;2023-08-20T07:43:24;11.23;;;8.30;;
80381;SDS011;69692;55.820;37.490;2023-08-20T07:45:49;9.98;;;6.85;;
80381;SDS011;69692;55.820;37.490;2023-08-20T07:48:15;8.32;;;7.03;;
80381;SDS011;69692;55.820;37.490;2023-08-20T07:50:41;9.57;;;7.65;;
80381;SDS011;69692;55.820;37.490;2023-08-20T07:53:07;8.90;;;7.47;;
80381;SDS011;69692;55.820;37.490;2023-08-20T07:55:33;11.23;;;7.80;;
80381;SDS011;69692;55.820;37.490;2023-08-20T07:57:58;10.50;;;7.72;;
80381;SDS011;69692;55.820;37.490;2023-08-20T08:00:24;10.90;;;8.25;;
80381;SDS011;69692;55.820;37.490;2023-08-20T08:02:50;14.38;;;8.32;;
80381;SDS011;69692;55.820;37.490;2023-08-20T08:05:16;10.57;;;8.32;;
80381;SDS011;69692;55.820;37.490;2023-08-20T08:07:41;8.98;;;8.07;;
80381;SDS011;69692;55.820;37.490;2023-08-20T08:10:07;11.00;;;7.68;;
80381;SDS011;69692;55.820;37.490;2023-08-20T08:12:33;10.35;;;7.55;;
80381;SDS011;69692;55.820;37.490;2023-08-20T08:14:59;9.48;;;7.32;;
80381;SDS011;69692;55.820;37.490;2023-08-20T08:17:25;8.70;;;7.78;;
80381;SDS011;69692;55.820;37.490;2023-08-20T08:19:51;9.80;;;7.30;;
80381;SDS011;69692;55.820;37.490;2023-08-20T08:22:19;10.45;;;7.70;;
80381;SDS011;69692;55.820;37.490;2023-08-20T08:24:45;10.95;;;6.68;;
80381;SDS011;69692;55.820;37.490;2023-08-20T08:27:13;9.07;;;7.63;;
80381;SDS011;69692;55.820;37.490;2023-08-20T08:29:38;8.25;;;7.13;;
80381;SDS011;69692;55.820;37.490;2023-08-20T08:32:04;9.23;;;6.78;;
80381;SDS011;69692;55.820;37.490;2023-08-20T08:34:31;6.95;;;6.25;;
80381;SDS011;69692;55.820;37.490;2023-08-20T08:36:57;9.32;;;7.00;;
80381;SDS011;69692;55.820;37.490;2023-08-20T08:39:22;9.48;;;5.78;;
80381;SDS011;69692;55.820;37.490;2023-08-20T08:41:49;7.50;;;6.32;;
80381;SDS011;69692;55.820;37.490;2023-08-20T08:44:19;10.60;;;6.40;;
80381;SDS011;69692;55.820;37.490;2023-08-20T08:46:47;7.68;;;5.82;;
80381;SDS011;69692;55.820;37.490;2023-08-20T08:49:15;8.10;;;6.13;;
80381;SDS011;69692;55.820;37.490;2023-08-20T08:51:41;9.25;;;5.53;;
80381;SDS011;69692;55.820;37.490;2023-08-20T08:54:10;7.13;;;6.13;;
80381;SDS011;69692;55.820;37.490;2023-08-20T08:56:38;6.22;;;5.30;;
80381;SDS011;69692;55.820;37.490;2023-08-20T08:59:05;9.52;;;6.10;;
80381;SDS011;69692;55.820;37.490;2023-08-20T09:01:31;10.50;;;6.00;;
80381;SDS011;69692;55.820;37.490;2023-08-20T09:03:58;7.22;;;5.88;;
80381;SDS011;69692;55.820;37.490;2023-08-20T09:06:24;6.60;;;5.68;;
80381;SDS011;69692;55.820;37.490;2023-08-20T09:08:50;6.65;;;5.45;;
80381;SDS011;69692;55.820;37.490;2023-08-20T09:11:35;6.53;;;5.18;;
80381;SDS011;69692;55.820;37.490;2023-08-20T09:14:02;6.78;;;4.90;;
80381;SDS011;69692;55.820;37.490;2023-08-20T09:16:31;9.00;;;6.45;;
80381;SDS011;69692;55.820;37.490;2023-08-20T09:19:00;7.45;;;5.38;;
80381;SDS011;69692;55.820;37.490;2023-08-20T09:21:27;6.45;;;5.47;;
80381;SDS011;69692;55.820;37.490;2023-08-20T09:23:56;6.10;;;5.50;;
80381;SDS011;69692;55.820;37.490;2023-08-20T09:26:25;7.65;;;5.53;;
80381;SDS011;69692;55.820;37.490;2023-08-20T09:28:54;7.13;;;5.80;;
80381;SDS011;69692;55.820;37.490;2023-08-20T09:31:22;6.38;;;5.75;;
80381;SDS011;69692;55.820;37.490;2023-08-20T09:34:02;7.57;;;5.70;;
80381;SDS011;69692;55.820;37.490;2023-08-20T09:36:32;6.07;;;5.35;;
80381;SDS011;69692;55.820;37.490;2023-08-20T09:41:26;7.53;;;5.80;;
80381;SDS011;69692;55.820;37.490;2023-08-20T09:43:58;7.95;;;5.28;;
80381;SDS011;69692;55.820;37.490;2023-08-20T09:46:26;6.15;;;5.53;;
80381;SDS011;69692;55.820;37.490;2023-08-20T09:48:55;6.28;;;5.68;;
80381;SDS011;69692;55.820;37.490;2023-08-20T09:51:26;7.30;;;5.28;;
80381;SDS011;69692;55.820;37.490;2023-08-20T09:56:31;7.47;;;5.22;;
80381;SDS011;69692;55.820;37.490;2023-08-20T09:59:03;7.60;;;5.43;;
80381;SDS011;69692;55.820;37.490;2023-08-20T10:01:29;8.45;;;6.00;;
80381;SDS011;69692;55.820;37.490;2023-08-20T10:03:55;7.30;;;4.72;;
80381;SDS011;69692;55.820;37.490;2023-08-20T10:06:23;4.68;;;4.18;;
80381;SDS011;69692;55.820;37.490;2023-08-20T10:08:53;5.30;;;4.28;;
80381;SDS011;69692;55.820;37.490;2023-08-20T10:11:19;5.32;;;4.22;;
80381;SDS011;69692;55.820;37.490;2023-08-20T10:13:45;4.38;;;3.97;;
80381;SDS011;69692;55.820;37.490;2023-08-20T10:16:17;4.55;;;3.88;;
80381;SDS011;69692;55.820;37.490;2023-08-20T10:18:46;6.88;;;4.95;;
80381;SDS011;69692;55.820;37.490;2023-08-20T10:21:12;6.35;;;4.28;;
80381;SDS011;69692;55.820;37.490;2023-08-20T10:23:41;5.72;;;4.47;;
80381;SDS011;69692;55.820;37.490;2023-08-20T10:26:10;5.82;;;4.95;;
80381;SDS011;69692;55.820;37.490;2023-08-20T10:28:36;5.93;;;4.03;;
80381;SDS011;69692;55.820;37.490;2023-08-20T10:33:35;5.20;;;4.70;;
80381;SDS011;69692;55.820;37.490;2023-08-20T10:36:18;6.97;;;5.00;;
80381;SDS011;69692;55.820;37.490;2023-08-20T10:38:54;5.38;;;4.80;;
80381;SDS011;69692;55.820;37.490;2023-08-20T10:41:25;6.03;;;4.55;;
80381;SDS011;69692;55.820;37.490;2023-08-20T10:43:52;6.00;;;5.13;;
80381;SDS011;69692;55.820;37.490;2023-08-20T10:46:23;6.72;;;5.20;;
80381;SDS011;69692;55.820;37.490;2023-08-20T10:48:51;5.90;;;5.10;;
80381;SDS011;69692;55.820;37.490;2023-08-20T10:59:13;6.43;;;4.90;;
80381;SDS011;69692;55.820;37.490;2023-08-20T11:01:43;6.53;;;4.55;;
80381;SDS011;69692;55.820;37.490;2023-08-20T11:04:10;6.00;;;5.13;;
80381;SDS011;69692;55.820;37.490;2023-08-20T11:06:36;5.93;;;5.22;;
80381;SDS011;69692;55.820;37.490;2023-08-20T11:09:04;7.35;;;5.10;;
80381;SDS011;69692;55.820;37.490;2023-08-20T11:11:31;6.03;;;5.35;;
80381;SDS011;69692;55.820;37.490;2023-08-20T11:14:03;8.25;;;5.18;;
80381;SDS011;69692;55.820;37.490;2023-08-20T11:16:31;6.47;;;5.10;;
80381;SDS011;69692;55.820;37.490;2023-08-20T11:18:56;7.13;;;5.95;;
80381;SDS011;69692;55.820;37.490;2023-08-20T11:21:23;5.78;;;5.15;;
80381;SDS011;69692;55.820;37.490;2023-08-20T11:23:49;6.15;;;5.32;;
80381;SDS011;69692;55.820;37.490;2023-08-20T11:26:14;6.88;;;5.40;;
80381;SDS011;69692;55.820;37.490;2023-08-20T11:28:44;5.75;;;5.07;;
80381;SDS011;69692;55.820;37.490;2023-08-20T11:31:11;5.80;;;5.00;;
80381;SDS011;69692;55.820;37.490;2023-08-20T11:33:37;6.10;;;4.80;;
80381;SDS011;69692;55.820;37.490;2023-08-20T11:36:04;10.35;;;5.72;;
80381;SDS011;69692;55.820;37.490;2023-08-20T11:38:31;8.77;;;5.80;;
80381;SDS011;69692;55.820;37.490;2023-08-20T11:40:58;9.15;;;5.35;;
80381;SDS011;69692;55.820;37.490;2023-08-20T11:43:27;7.60;;;5.80;;
80381;SDS011;69692;55.820;37.490;2023-08-20T11:45:54;7.60;;;5.68;;
80381;SDS011;69692;55.820;37.490;2023-08-20T11:48:20;6.40;;;5.40;;
80381;SDS011;69692;55.820;37.490;2023-08-20T11:50:49;6.28;;;5.30;;
80381;SDS011;69692;55.820;37.490;2023-08-20T11:53:20;6.55;;;5.57;;
80381;SDS011;69692;55.820;37.490;2023-08-20T11:55:47;8.50;;;6.03;;
80381;SDS011;69692;55.820;37.490;2023-08-20T11:58:13;8.65;;;6.60;;
80381;SDS011;69692;55.820;37.490;2023-08-20T12:00:40;7.78;;;5.65;;
80381;SDS011;69692;55.820;37.490;2023-08-20T12:03:07;9.27;;;6.07;;
80381;SDS011;69692;55.820;37.490;2023-08-20T12:05:35;8.95;;;6.18;;
80381;SDS011;69692;55.820;37.490;2023-08-20T12:08:01;7.32;;;6.10;;
80381;SDS011;69692;55.820;37.490;2023-08-20T12:10:29;7.50;;;6.07;;
80381;SDS011;69692;55.820;37.490;2023-08-20T12:12:56;8.30;;;7.05;;
80381;SDS011;69692;55.820;37.490;2023-08-20T12:15:23;8.05;;;6.35;;
80381;SDS011;69692;55.820;37.490;2023-08-20T12:18:00;6.93;;;5.80;;
80381;SDS011;69692;55.820;37.490;2023-08-20T12:20:30;11.27;;;7.22;;
80381;SDS011;69692;55.820;37.490;2023-08-20T12:23:01;11.50;;;6.82;;
80381;SDS011;69692;55.820;37.490;2023-08-20T12:25:32;9.00;;;6.43;;
80381;SDS011;69692;55.820;37.490;2023-08-20T12:28:01;9.65;;;6.35;;
80381;SDS011;69692;55.820;37.490;2023-08-20T12:30:28;9.25;;;6.05;;
80381;SDS011;69692;55.820;37.490;2023-08-20T12:32:54;7.47;;;5.05;;
80381;SDS011;69692;55.820;37.490;2023-08-20T12:35:20;9.73;;;5.63;;
80381;SDS011;69692;55.820;37.490;2023-08-20T12:37:46;13.98;;;5.90;;
80381;SDS011;69692;55.820;37.490;2023-08-20T12:40:12;10.90;;;5.43;;
80381;SDS011;69692;55.820;37.490;2023-08-20T12:42:38;8.57;;;4.72;;
80381;SDS011;69692;55.820;37.490;2023-08-20T12:45:07;7.68;;;4.40;;
80381;SDS011;69692;55.820;37.490;2023-08-20T12:47:35;9.13;;;4.35;;
80381;SDS011;69692;55.820;37.490;2023-08-20T12:50:02;10.73;;;4.95;;
80381;SDS011;69692;55.820;37.490;2023-08-20T12:52:30;10.18;;;4.70;;
80381;SDS011;69692;55.820;37.490;2023-08-20T12:54:57;7.30;;;4.70;;
80381;SDS011;69692;55.820;37.490;2023-08-20T12:57:23;8.75;;;4.38;;
80381;SDS011;69692;55.820;37.490;2023-08-20T12:59:50;6.25;;;4.13;;
80381;SDS011;69692;55.820;37.490;2023-08-20T13:02:17;9.25;;;4.55;;
80381;SDS011;69692;55.820;37.490;2023-08-20T13:04:43;8.75;;;4.20;;
80381;SDS011;69692;55.820;37.490;2023-08-20T13:07:09;7.95;;;3.83;;
80381;SDS011;69692;55.820;37.490;2023-08-20T13:09:36;7.15;;;3.42;;
80381;SDS011;69692;55.820;37.490;2023-08-20T13:12:02;7.35;;;4.72;;
80381;SDS011;69692;55.820;37.490;2023-08-20T13:14:31;9.15;;;4.82;;
80381;SDS011;69692;55.820;37.490;2023-08-20T13:16:57;8.45;;;5.57;;
80381;SDS011;69692;55.820;37.490;2023-08-20T13:19:23;9.57;;;5.30;;
80381;SDS011;69692;55.820;37.490;2023-08-20T13:21:49;6.07;;;4.15;;
80381;SDS011;69692;55.820;37.490;2023-08-20T13:24:14;6.57;;;4.25;;
80381;SDS011;69692;55.820;37.490;2023-08-20T13:26:40;7.22;;;4.60;;
80381;SDS011;69692;55.820;37.490;2023-08-20T13:29:07;8.27;;;4.38;;
80381;SDS011;69692;55.820;37.490;2023-08-20T13:31:33;8.25;;;4.93;;
80381;SDS011;69692;55.820;37.490;2023-08-20T13:34:01;10.48;;;5.43;;
80381;SDS011;69692;55.820;37.490;2023-08-20T13:36:26;8.57;;;5.43;;
80381;SDS011;69692;55.820;37.490;2023-08-20T13:38:52;8.45;;;5.22;;
80381;SDS011;69692;55.820;37.490;2023-08-20T13:41:18;8.77;;;5.05;;
80381;SDS011;69692;55.820;37.490;2023-08-20T13:43:44;9.30;;;5.60;;
80381;SDS011;69692;55.820;37.490;2023-08-20T13:46:10;9.50;;;4.80;;
80381;SDS011;69692;55.820;37.490;2023-08-20T13:48:36;8.60;;;5.13;;
80381;SDS011;69692;55.820;37.490;2023-08-20T13:51:02;7.18;;;5.45;;
80381;SDS011;69692;55.820;37.490;2023-08-20T13:53:27;12.32;;;6.35;;
80381;SDS011;69692;55.820;37.490;2023-08-20T13:55:53;11.60;;;6.20;;
80381;SDS011;69692;55.820;37.490;2023-08-20T13:58:21;8.40;;;5.75;;
80381;SDS011;69692;55.820;37.490;2023-08-20T14:00:46;9.07;;;6.47;;
80381;SDS011;69692;55.820;37.490;2023-08-20T14:03:12;7.85;;;6.60;;
80381;SDS011;69692;55.820;37.490;2023-08-20T14:05:38;7.63;;;6.03;;
80381;SDS011;69692;55.820;37.490;2023-08-20T14:08:04;8.48;;;5.97;;
80381;SDS011;69692;55.820;37.490;2023-08-20T14:10:30;8.63;;;6.93;;
80381;SDS011;69692;55.820;37.490;2023-08-20T14:12:56;8.63;;;6.72;;
80381;SDS011;69692;55.820;37.490;2023-08-20T14:15:22;6.60;;;5.40;;
80381;SDS011;69692;55.820;37.490;2023-08-20T14:17:48;6.70;;;5.45;;
80381;SDS011;69692;55.820;37.490;2023-08-20T14:20:14;7.72;;;5.63;;
80381;SDS011;69692;55.820;37.490;2023-08-20T14:22:39;8.40;;;6.03;;
80381;SDS011;69692;55.820;37.490;2023-08-20T14:25:05;6.75;;;5.97;;
80381;SDS011;69692;55.820;37.490;2023-08-20T14:27:32;9.50;;;7.30;;
80381;SDS011;69692;55.820;37.490;2023-08-20T14:29:58;8.68;;;6.70;;
80381;SDS011;69692;55.820;37.490;2023-08-20T14:32:23;10.10;;;6.50;;
80381;SDS011;69692;55.820;37.490;2023-08-20T14:34:49;6.90;;;5.55;;
80381;SDS011;69692;55.820;37.490;2023-08-20T14:37:16;10.00;;;7.85;;
80381;SDS011;69692;55.820;37.490;2023-08-20T14:39:41;9.95;;;6.95;;
80381;SDS011;69692;55.820;37.490;2023-08-20T14:42:08;8.98;;;6.50;;